AirNav   Air Wisconsin Up To $57,000 Bonus
 
 936 users online  

35NY Kleinman's Heliport
Centre Island, New York, USA

GOING TO CENTRE ISLAND?


FAA INFORMATION EFFECTIVE 25 MARCH 2021

Location

FAA Identifier: 35NY
Lat/Long: 40-53-54.0300N 073-31-06.7900W
40-53.900500N 073-31.113167W
40.8983417,-73.5185528
(estimated)
Elevation: 8 ft. / 2 m (estimated)
Time zone: UTC -4 (UTC -5 during Standard Time)
Zip code: 11765

Heliport Operations

Heliport use: Private use. Permission required prior to landing
Activation date: 02/2019
Control tower: no
ARTCC: NEW YORK CENTER
FSS: NEW YORK FLIGHT SERVICE STATION
Attendance: 
Segmented circle: no

Heliport Communications

WX ASOS at FRG (11 nm SE): PHONE 631-752-8129
WX ASOS at HPN (13 nm NW): PHONE 914-288-0216
WX ASOS at LGA (18 nm SW): PHONE 718-672-6317
WX ASOS at JFK (19 nm SW): 128.725 (718-656-0956)
WX ASOS at ISP (20 nm E): 120.725 (631-471-0131)

Nearby radio navigation aids

VOR radial/distance  VOR name  Freq  Var
DPKr315/11.7DEER PARK VOR/DME117.7012W
LGAr079/17.3LA GUARDIA VOR/DME113.1012W
JFKr048/19.6KENNEDY VOR/DME115.9012W
CMKr185/23.1CARMEL VOR/DME116.6012W
BDRr241/23.8BRIDGEPORT VOR/DME108.8012W
CRIr056/24.2CANARSIE VOR/DME112.3011W
TEBr094/24.8TETERBORO VOR/DME108.4011W
CCCr280/32.7CALVERTON VOR/DME117.2013W

 
NDB name  Hdg/Dist  Freq  Var  ID
FRIKK001/7.540714WFR ..-. .-.
BABYLON350/14.927514WBBN -... -... -.

Heliport Services

Runway Information

Helipad H1

Dimensions: 20 x 20 ft. / 6 x 6 m
Surface: concrete/turf
Latitude: 40-53.900500N
Longitude: 073-31.113167W
Elevation: 8.0 ft.
Traffic pattern: leftleft

Heliport Ownership and Management from official FAA records

Ownership: Privately-owned
Owner: CALVIN KLEINMAN
402 CENTRE ISLAND ROAD
CENTRE ISLAND, NY 11771
Phone 516-702-9879
Manager: CALVIN KLEINMAN
402 CENTRE ISLAND ROAD
CENTRE ISLAND, NY 11771
Phone 516-702-9879

Additional Remarks

FOR CD CTC NEW YORK APCH AT 516-683-2962.

Instrument Procedures

There are no published instrument procedures at 35NY.

Some nearby airports with instrument procedures:

KFRG - Republic Airport (11 nm SE)
KHPN - Westchester County Airport (13 nm NW)
KLGA - LaGuardia Airport (18 nm SW)
KJFK - John F Kennedy International Airport (19 nm SW)
KISP - Long Island Mac Arthur Airport (20 nm E)
 
Loc | Ops | Rwys | IFR | FBO | Links
Com | Nav | Svcs | Stats | Notes
Aerial photo
No photo
 
Airport distance calculator
Flying to Kleinman's Heliport? Find the distance to fly.

From to 35NY

Sunrise and sunset
Times for 11-Apr-2021
 Local
(UTC-4)
 Zulu
(UTC)
Morning civil twilight05:5409:54
Sunrise06:2210:22
Sunset19:2823:28
Evening civil twilight19:5623:56

Current date and time
Zulu (UTC)  12-Apr-2021 01:58:42
Local (UTC-4)  11-Apr-2021 21:58:42
 
METAR
KFRG 
11nm SE 
120153Z 07009KT 5SM RA BR OVC007 09/08 A2966 RMK AO2 CIG 005V010 SLP044 P0005 T00940078
KHPN 
13nm NW 
120056Z 08010G21KT 3SM BR OVC007 09/08 A2964 RMK DZE51 CIG 005V011 SLP039
KLGA 
18nm SW 
120151Z 07011KT 9SM OVC010 09/07 A2965 RMK AO2 RAB0055E05B27E41 SLP041 P0001 T00940072
KJFK 
19nm SW 
120151Z 07012KT 3SM -RA BR BKN009 OVC012 10/08 A2965 RMK AO2 SLP041 P0001 T01000083
KISP 
20nm E 
120056Z 07008KT 4SM -RA BR OVC007 09/09 A2966 RMK AO2 SLP042 P0000 T00890089
KNYC 
21nm W 
120151Z AUTO 03009G17KT 350V070 4SM -RA BR OVC008 09/08 A2968 RMK AO2 RAB00 SLP042 P0003 T00940078
TAF
KHPN 
13nm NW 
111944Z 1120/1218 08011G18KT 1 1/2SM -SHRA BR VV002 FM120100 07011KT 1/2SM -SHRA FG OVC003 FM121600 08009KT 1 1/2SM -SHRA BR OVC007
KLGA 
18nm SW 
111944Z 1120/1224 05013G20KT 2SM -SHRA BR OVC003 FM120000 05016KT 2SM -SHRA BR OVC004 FM121500 06014KT 4SM -SHRA BR OVC015
KJFK 
19nm SW 
111944Z 1120/1224 10014G21KT 3SM -SHRA BR OVC004 FM120000 07013KT 2SM -SHRA BR OVC006 FM121500 06014KT 5SM -SHRA BR OVC018
KISP 
20nm E 
111944Z 1120/1218 08012G18KT 2SM -SHRA BR OVC004 FM120200 07010G21KT 1 1/2SM -SHRA BR OVC004 FM121500 05014G20KT 3SM -SHRA BR OVC015
NOTAMs
Click for the latest NOTAMs
NOTAMs are issued by the DoD/FAA and will open in a separate window not controlled by AirNav.

 

 
 

Would you like to see your business listed on this page?

 If your business provides an interesting product or service to pilots, flight crews, aircraft, or users of the Kleinman's Heliport, you should consider listing it here.  To start the listing process, click on the button below
 
Add a business
 

Other Pages about Kleinman's Heliport

Update a link
 
Copyright © AirNav, LLC. All rights reserved. Privacy Policy  Contact